sensor_id;sensor_type;location;lat;lon;timestamp;P1;durP1;ratioP1;P2;durP2;ratioP2
28245;SDS011;15510;52.512;13.300;2023-06-26T00:00:53;9.48;;;8.25;;
28245;SDS011;15510;52.512;13.300;2023-06-26T00:03:18;8.93;;;8.02;;
28245;SDS011;15510;52.512;13.300;2023-06-26T00:05:44;8.10;;;6.85;;
28245;SDS011;15510;52.512;13.300;2023-06-26T00:08:10;10.55;;;7.88;;
28245;SDS011;15510;52.512;13.300;2023-06-26T00:10:36;11.23;;;8.27;;
28245;SDS011;15510;52.512;13.300;2023-06-26T00:13:02;9.38;;;8.38;;
28245;SDS011;15510;52.512;13.300;2023-06-26T00:15:28;9.77;;;8.45;;
28245;SDS011;15510;52.512;13.300;2023-06-26T00:17:56;13.48;;;9.27;;
28245;SDS011;15510;52.512;13.300;2023-06-26T00:20:23;13.38;;;9.40;;
28245;SDS011;15510;52.512;13.300;2023-06-26T00:22:50;12.85;;;8.95;;
28245;SDS011;15510;52.512;13.300;2023-06-26T00:25:16;12.10;;;8.38;;
28245;SDS011;15510;52.512;13.300;2023-06-26T00:27:41;10.02;;;8.50;;
28245;SDS011;15510;52.512;13.300;2023-06-26T00:30:07;12.60;;;9.45;;
28245;SDS011;15510;52.512;13.300;2023-06-26T00:32:34;11.27;;;8.57;;
28245;SDS011;15510;52.512;13.300;2023-06-26T00:35:02;10.00;;;8.70;;
28245;SDS011;15510;52.512;13.300;2023-06-26T00:37:28;11.48;;;8.60;;
28245;SDS011;15510;52.512;13.300;2023-06-26T00:39:54;9.68;;;8.27;;
28245;SDS011;15510;52.512;13.300;2023-06-26T00:42:19;9.70;;;8.68;;
28245;SDS011;15510;52.512;13.300;2023-06-26T00:44:45;11.73;;;8.90;;
28245;SDS011;15510;52.512;13.300;2023-06-26T00:47:13;10.75;;;8.43;;
28245;SDS011;15510;52.512;13.300;2023-06-26T00:49:41;9.02;;;8.13;;
28245;SDS011;15510;52.512;13.300;2023-06-26T00:52:06;10.55;;;8.52;;
28245;SDS011;15510;52.512;13.300;2023-06-26T00:54:36;8.60;;;7.63;;
28245;SDS011;15510;52.512;13.300;2023-06-26T00:57:02;10.25;;;7.65;;
28245;SDS011;15510;52.512;13.300;2023-06-26T00:59:28;8.43;;;7.53;;
28245;SDS011;15510;52.512;13.300;2023-06-26T01:01:54;8.80;;;7.90;;
28245;SDS011;15510;52.512;13.300;2023-06-26T01:04:20;11.75;;;7.60;;
28245;SDS011;15510;52.512;13.300;2023-06-26T01:06:46;8.45;;;7.65;;
28245;SDS011;15510;52.512;13.300;2023-06-26T01:09:17;9.98;;;7.07;;
28245;SDS011;15510;52.512;13.300;2023-06-26T01:11:44;8.43;;;7.30;;
28245;SDS011;15510;52.512;13.300;2023-06-26T01:14:10;8.23;;;7.32;;
28245;SDS011;15510;52.512;13.300;2023-06-26T01:16:37;8.45;;;7.53;;
28245;SDS011;15510;52.512;13.300;2023-06-26T01:19:06;10.63;;;8.02;;
28245;SDS011;15510;52.512;13.300;2023-06-26T01:21:40;8.82;;;7.82;;
28245;SDS011;15510;52.512;13.300;2023-06-26T01:24:17;10.77;;;7.78;;
28245;SDS011;15510;52.512;13.300;2023-06-26T01:26:48;9.77;;;7.82;;
28245;SDS011;15510;52.512;13.300;2023-06-26T01:29:16;7.80;;;7.10;;
28245;SDS011;15510;52.512;13.300;2023-06-26T01:31:44;10.52;;;7.82;;
28245;SDS011;15510;52.512;13.300;2023-06-26T01:34:13;13.80;;;7.53;;
28245;SDS011;15510;52.512;13.300;2023-06-26T01:36:40;8.57;;;7.72;;
28245;SDS011;15510;52.512;13.300;2023-06-26T01:39:06;7.40;;;6.80;;
28245;SDS011;15510;52.512;13.300;2023-06-26T01:41:33;9.82;;;7.55;;
28245;SDS011;15510;52.512;13.300;2023-06-26T01:54:26;8.73;;;7.28;;
28245;SDS011;15510;52.512;13.300;2023-06-26T01:56:56;8.75;;;7.22;;
28245;SDS011;15510;52.512;13.300;2023-06-26T01:59:23;8.60;;;7.78;;
28245;SDS011;15510;52.512;13.300;2023-06-26T02:01:52;11.13;;;7.68;;
28245;SDS011;15510;52.512;13.300;2023-06-26T02:04:18;8.43;;;7.53;;
28245;SDS011;15510;52.512;13.300;2023-06-26T02:06:43;9.82;;;8.15;;
28245;SDS011;15510;52.512;13.300;2023-06-26T02:09:09;7.90;;;7.10;;
28245;SDS011;15510;52.512;13.300;2023-06-26T02:11:36;9.15;;;7.18;;
28245;SDS011;15510;52.512;13.300;2023-06-26T02:14:01;9.00;;;8.10;;
28245;SDS011;15510;52.512;13.300;2023-06-26T02:16:28;8.57;;;7.75;;
28245;SDS011;15510;52.512;13.300;2023-06-26T02:18:54;9.57;;;8.18;;
28245;SDS011;15510;52.512;13.300;2023-06-26T02:21:22;8.70;;;7.88;;
28245;SDS011;15510;52.512;13.300;2023-06-26T02:23:47;9.77;;;7.90;;
28245;SDS011;15510;52.512;13.300;2023-06-26T02:26:13;9.00;;;7.75;;
28245;SDS011;15510;52.512;13.300;2023-06-26T02:28:41;8.40;;;7.60;;
28245;SDS011;15510;52.512;13.300;2023-06-26T02:31:07;8.93;;;7.97;;
28245;SDS011;15510;52.512;13.300;2023-06-26T02:33:32;11.35;;;7.85;;
28245;SDS011;15510;52.512;13.300;2023-06-26T02:35:58;9.80;;;8.13;;
28245;SDS011;15510;52.512;13.300;2023-06-26T02:38:24;8.70;;;7.75;;
28245;SDS011;15510;52.512;13.300;2023-06-26T02:40:50;10.93;;;7.82;;
28245;SDS011;15510;52.512;13.300;2023-06-26T02:43:16;8.68;;;7.68;;
28245;SDS011;15510;52.512;13.300;2023-06-26T02:45:41;8.85;;;7.63;;
28245;SDS011;15510;52.512;13.300;2023-06-26T02:48:10;10.00;;;8.30;;
28245;SDS011;15510;52.512;13.300;2023-06-26T02:50:36;11.30;;;8.05;;
28245;SDS011;15510;52.512;13.300;2023-06-26T02:53:05;10.30;;;8.30;;
28245;SDS011;15510;52.512;13.300;2023-06-26T02:55:33;9.30;;;7.85;;
28245;SDS011;15510;52.512;13.300;2023-06-26T02:58:00;8.98;;;7.95;;
28245;SDS011;15510;52.512;13.300;2023-06-26T03:00:26;9.98;;;8.23;;
28245;SDS011;15510;52.512;13.300;2023-06-26T03:02:55;10.00;;;9.00;;
28245;SDS011;15510;52.512;13.300;2023-06-26T03:05:22;9.60;;;8.63;;
28245;SDS011;15510;52.512;13.300;2023-06-26T03:07:49;9.57;;;8.60;;
28245;SDS011;15510;52.512;13.300;2023-06-26T03:10:15;10.40;;;8.82;;
28245;SDS011;15510;52.512;13.300;2023-06-26T03:12:42;9.43;;;8.45;;
28245;SDS011;15510;52.512;13.300;2023-06-26T03:15:08;9.90;;;8.85;;
28245;SDS011;15510;52.512;13.300;2023-06-26T03:17:34;10.43;;;9.35;;
28245;SDS011;15510;52.512;13.300;2023-06-26T03:20:05;12.35;;;10.07;;
28245;SDS011;15510;52.512;13.300;2023-06-26T03:22:45;10.75;;;9.30;;
28245;SDS011;15510;52.512;13.300;2023-06-26T03:25:12;10.50;;;9.45;;
28245;SDS011;15510;52.512;13.300;2023-06-26T03:27:38;11.20;;;9.38;;
28245;SDS011;15510;52.512;13.300;2023-06-26T03:30:04;11.68;;;9.40;;
28245;SDS011;15510;52.512;13.300;2023-06-26T03:32:33;10.73;;;9.63;;
28245;SDS011;15510;52.512;13.300;2023-06-26T03:34:59;11.23;;;9.48;;
28245;SDS011;15510;52.512;13.300;2023-06-26T03:37:28;9.63;;;8.63;;
28245;SDS011;15510;52.512;13.300;2023-06-26T03:39:54;10.15;;;9.13;;
28245;SDS011;15510;52.512;13.300;2023-06-26T03:42:21;10.20;;;9.20;;
28245;SDS011;15510;52.512;13.300;2023-06-26T03:44:47;10.13;;;9.13;;
28245;SDS011;15510;52.512;13.300;2023-06-26T03:47:16;12.57;;;9.68;;
28245;SDS011;15510;52.512;13.300;2023-06-26T03:49:42;10.65;;;9.55;;
28245;SDS011;15510;52.512;13.300;2023-06-26T03:52:07;11.07;;;9.30;;
28245;SDS011;15510;52.512;13.300;2023-06-26T03:54:33;9.88;;;8.98;;
28245;SDS011;15510;52.512;13.300;2023-06-26T03:56:59;10.50;;;9.50;;
28245;SDS011;15510;52.512;13.300;2023-06-26T03:59:25;11.23;;;9.27;;
28245;SDS011;15510;52.512;13.300;2023-06-26T04:01:51;9.88;;;8.98;;
28245;SDS011;15510;52.512;13.300;2023-06-26T04:04:16;11.25;;;10.15;;
28245;SDS011;15510;52.512;13.300;2023-06-26T04:06:42;9.63;;;8.73;;
28245;SDS011;15510;52.512;13.300;2023-06-26T04:09:08;10.35;;;9.32;;
28245;SDS011;15510;52.512;13.300;2023-06-26T04:11:33;10.32;;;9.35;;
28245;SDS011;15510;52.512;13.300;2023-06-26T04:13:59;10.60;;;9.52;;
28245;SDS011;15510;52.512;13.300;2023-06-26T04:16:25;12.32;;;9.05;;
28245;SDS011;15510;52.512;13.300;2023-06-26T04:18:51;9.98;;;8.57;;
28245;SDS011;15510;52.512;13.300;2023-06-26T04:21:17;11.15;;;9.35;;
28245;SDS011;15510;52.512;13.300;2023-06-26T04:23:43;10.13;;;9.07;;
28245;SDS011;15510;52.512;13.300;2023-06-26T04:26:09;8.98;;;8.07;;
28245;SDS011;15510;52.512;13.300;2023-06-26T04:28:39;9.02;;;8.13;;
28245;SDS011;15510;52.512;13.300;2023-06-26T04:31:05;12.00;;;8.18;;
28245;SDS011;15510;52.512;13.300;2023-06-26T04:33:31;10.80;;;9.00;;
28245;SDS011;15510;52.512;13.300;2023-06-26T04:35:57;9.48;;;8.50;;
28245;SDS011;15510;52.512;13.300;2023-06-26T04:38:23;9.32;;;8.05;;
28245;SDS011;15510;52.512;13.300;2023-06-26T04:40:51;10.68;;;8.25;;
28245;SDS011;15510;52.512;13.300;2023-06-26T04:43:17;11.13;;;8.88;;
28245;SDS011;15510;52.512;13.300;2023-06-26T04:45:43;9.82;;;8.82;;
28245;SDS011;15510;52.512;13.300;2023-06-26T04:48:08;9.35;;;8.40;;
28245;SDS011;15510;52.512;13.300;2023-06-26T04:50:34;11.93;;;8.35;;
28245;SDS011;15510;52.512;13.300;2023-06-26T04:53:00;9.32;;;8.40;;
28245;SDS011;15510;52.512;13.300;2023-06-26T04:55:26;8.73;;;7.82;;
28245;SDS011;15510;52.512;13.300;2023-06-26T04:57:52;8.93;;;7.90;;
28245;SDS011;15510;52.512;13.300;2023-06-26T05:00:18;8.25;;;7.45;;
28245;SDS011;15510;52.512;13.300;2023-06-26T05:02:44;9.00;;;8.20;;
28245;SDS011;15510;52.512;13.300;2023-06-26T05:05:10;13.55;;;9.07;;
28245;SDS011;15510;52.512;13.300;2023-06-26T05:07:36;11.57;;;8.45;;
28245;SDS011;15510;52.512;13.300;2023-06-26T05:10:03;8.27;;;7.47;;
28245;SDS011;15510;52.512;13.300;2023-06-26T05:12:29;10.82;;;7.45;;
28245;SDS011;15510;52.512;13.300;2023-06-26T05:14:55;8.57;;;7.65;;
28245;SDS011;15510;52.512;13.300;2023-06-26T05:17:20;9.23;;;8.30;;
28245;SDS011;15510;52.512;13.300;2023-06-26T05:19:46;7.63;;;6.72;;
28245;SDS011;15510;52.512;13.300;2023-06-26T05:22:12;8.48;;;7.63;;
28245;SDS011;15510;52.512;13.300;2023-06-26T05:24:39;11.10;;;8.10;;
28245;SDS011;15510;52.512;13.300;2023-06-26T05:27:05;9.05;;;7.55;;
28245;SDS011;15510;52.512;13.300;2023-06-26T05:29:32;9.93;;;8.98;;
28245;SDS011;15510;52.512;13.300;2023-06-26T05:31:58;10.88;;;8.00;;
28245;SDS011;15510;52.512;13.300;2023-06-26T05:34:25;8.88;;;7.95;;
28245;SDS011;15510;52.512;13.300;2023-06-26T05:37:00;9.70;;;8.80;;
28245;SDS011;15510;52.512;13.300;2023-06-26T05:39:27;10.23;;;8.95;;
28245;SDS011;15510;52.512;13.300;2023-06-26T05:41:53;10.90;;;9.02;;
28245;SDS011;15510;52.512;13.300;2023-06-26T05:44:19;10.32;;;9.20;;
28245;SDS011;15510;52.512;13.300;2023-06-26T05:46:45;10.10;;;9.02;;
28245;SDS011;15510;52.512;13.300;2023-06-26T05:49:11;10.10;;;8.60;;
28245;SDS011;15510;52.512;13.300;2023-06-26T05:51:37;9.82;;;8.82;;
28245;SDS011;15510;52.512;13.300;2023-06-26T05:54:03;9.65;;;8.57;;
28245;SDS011;15510;52.512;13.300;2023-06-26T05:56:29;14.13;;;9.10;;
28245;SDS011;15510;52.512;13.300;2023-06-26T05:58:55;10.23;;;8.93;;
28245;SDS011;15510;52.512;13.300;2023-06-26T06:01:22;11.80;;;8.50;;
28245;SDS011;15510;52.512;13.300;2023-06-26T06:03:48;11.20;;;8.48;;
28245;SDS011;15510;52.512;13.300;2023-06-26T06:06:14;10.82;;;7.60;;
28245;SDS011;15510;52.512;13.300;2023-06-26T06:08:41;8.05;;;7.00;;
28245;SDS011;15510;52.512;13.300;2023-06-26T06:11:07;8.18;;;7.10;;
28245;SDS011;15510;52.512;13.300;2023-06-26T06:13:35;14.02;;;11.60;;
28245;SDS011;15510;52.512;13.300;2023-06-26T06:16:01;8.82;;;7.15;;
28245;SDS011;15510;52.512;13.300;2023-06-26T06:18:26;8.73;;;7.13;;
28245;SDS011;15510;52.512;13.300;2023-06-26T06:20:52;12.13;;;7.10;;
28245;SDS011;15510;52.512;13.300;2023-06-26T06:23:18;10.50;;;6.75;;
28245;SDS011;15510;52.512;13.300;2023-06-26T06:25:44;8.98;;;6.45;;
28245;SDS011;15510;52.512;13.300;2023-06-26T06:28:09;9.35;;;7.03;;
28245;SDS011;15510;52.512;13.300;2023-06-26T06:30:35;7.60;;;6.50;;
28245;SDS011;15510;52.512;13.300;2023-06-26T06:33:01;9.13;;;6.50;;
28245;SDS011;15510;52.512;13.300;2023-06-26T06:35:27;7.03;;;6.10;;
28245;SDS011;15510;52.512;13.300;2023-06-26T06:37:53;6.13;;;5.53;;
28245;SDS011;15510;52.512;13.300;2023-06-26T06:40:19;6.85;;;5.72;;
28245;SDS011;15510;52.512;13.300;2023-06-26T06:42:47;7.80;;;5.22;;
28245;SDS011;15510;52.512;13.300;2023-06-26T06:45:13;7.55;;;5.25;;
28245;SDS011;15510;52.512;13.300;2023-06-26T06:47:39;6.05;;;5.38;;
28245;SDS011;15510;52.512;13.300;2023-06-26T06:50:05;6.28;;;5.68;;
28245;SDS011;15510;52.512;13.300;2023-06-26T06:52:37;6.38;;;5.22;;
28245;SDS011;15510;52.512;13.300;2023-06-26T06:55:07;5.95;;;5.35;;
28245;SDS011;15510;52.512;13.300;2023-06-26T06:57:36;6.38;;;5.75;;
28245;SDS011;15510;52.512;13.300;2023-06-26T07:00:04;10.07;;;5.20;;
28245;SDS011;15510;52.512;13.300;2023-06-26T07:02:38;6.20;;;5.00;;
28245;SDS011;15510;52.512;13.300;2023-06-26T07:05:05;7.28;;;5.10;;
28245;SDS011;15510;52.512;13.300;2023-06-26T07:07:31;5.68;;;5.03;;
28245;SDS011;15510;52.512;13.300;2023-06-26T07:09:59;7.63;;;5.05;;
28245;SDS011;15510;52.512;13.300;2023-06-26T07:12:26;6.57;;;5.15;;
28245;SDS011;15510;52.512;13.300;2023-06-26T07:14:52;7.13;;;4.57;;
28245;SDS011;15510;52.512;13.300;2023-06-26T07:17:19;8.82;;;4.95;;
28245;SDS011;15510;52.512;13.300;2023-06-26T07:19:46;7.35;;;5.30;;
28245;SDS011;15510;52.512;13.300;2023-06-26T07:22:12;6.43;;;4.72;;
28245;SDS011;15510;52.512;13.300;2023-06-26T07:24:49;5.43;;;4.93;;
28245;SDS011;15510;52.512;13.300;2023-06-26T07:27:15;6.80;;;5.13;;
28245;SDS011;15510;52.512;13.300;2023-06-26T07:29:41;5.90;;;4.60;;
28245;SDS011;15510;52.512;13.300;2023-06-26T07:32:08;5.38;;;4.65;;
28245;SDS011;15510;52.512;13.300;2023-06-26T07:34:40;6.97;;;4.78;;
28245;SDS011;15510;52.512;13.300;2023-06-26T07:37:24;4.97;;;4.47;;
28245;SDS011;15510;52.512;13.300;2023-06-26T07:39:50;4.90;;;4.40;;
28245;SDS011;15510;52.512;13.300;2023-06-26T07:42:18;10.32;;;5.10;;
28245;SDS011;15510;52.512;13.300;2023-06-26T07:44:46;5.35;;;4.68;;
28245;SDS011;15510;52.512;13.300;2023-06-26T07:47:12;6.82;;;4.15;;
28245;SDS011;15510;52.512;13.300;2023-06-26T07:49:41;5.20;;;4.25;;
28245;SDS011;15510;52.512;13.300;2023-06-26T07:52:07;4.50;;;4.10;;
28245;SDS011;15510;52.512;13.300;2023-06-26T07:54:38;5.22;;;4.72;;
28245;SDS011;15510;52.512;13.300;2023-06-26T07:57:04;6.03;;;5.20;;
28245;SDS011;15510;52.512;13.300;2023-06-26T07:59:34;4.95;;;4.45;;
28245;SDS011;15510;52.512;13.300;2023-06-26T08:02:00;4.53;;;4.13;;
28245;SDS011;15510;52.512;13.300;2023-06-26T08:04:27;4.72;;;4.32;;
28245;SDS011;15510;52.512;13.300;2023-06-26T08:06:56;5.03;;;4.28;;
28245;SDS011;15510;52.512;13.300;2023-06-26T08:09:23;5.07;;;4.05;;
28245;SDS011;15510;52.512;13.300;2023-06-26T08:12:01;10.80;;;4.57;;
28245;SDS011;15510;52.512;13.300;2023-06-26T08:14:40;9.48;;;5.00;;
28245;SDS011;15510;52.512;13.300;2023-06-26T08:17:06;8.27;;;4.60;;
28245;SDS011;15510;52.512;13.300;2023-06-26T08:19:32;6.35;;;4.13;;
28245;SDS011;15510;52.512;13.300;2023-06-26T08:21:57;6.88;;;3.83;;
28245;SDS011;15510;52.512;13.300;2023-06-26T08:24:23;4.22;;;3.83;;
28245;SDS011;15510;52.512;13.300;2023-06-26T08:26:49;4.45;;;3.60;;
28245;SDS011;15510;52.512;13.300;2023-06-26T08:29:15;4.43;;;3.80;;
28245;SDS011;15510;52.512;13.300;2023-06-26T08:31:44;5.70;;;4.05;;
28245;SDS011;15510;52.512;13.300;2023-06-26T08:34:10;4.57;;;4.18;;
28245;SDS011;15510;52.512;13.300;2023-06-26T08:36:39;4.10;;;3.70;;
28245;SDS011;15510;52.512;13.300;2023-06-26T08:39:05;6.78;;;4.00;;
28245;SDS011;15510;52.512;13.300;2023-06-26T08:41:31;3.83;;;3.50;;
28245;SDS011;15510;52.512;13.300;2023-06-26T08:43:57;3.70;;;3.15;;
28245;SDS011;15510;52.512;13.300;2023-06-26T08:46:33;5.75;;;3.83;;
28245;SDS011;15510;52.512;13.300;2023-06-26T08:49:34;3.80;;;3.50;;
28245;SDS011;15510;52.512;13.300;2023-06-26T08:52:18;5.85;;;3.60;;
28245;SDS011;15510;52.512;13.300;2023-06-26T08:55:05;4.75;;;3.75;;
28245;SDS011;15510;52.512;13.300;2023-06-26T08:57:36;3.72;;;3.42;;
28245;SDS011;15510;52.512;13.300;2023-06-26T09:00:08;3.88;;;3.58;;
28245;SDS011;15510;52.512;13.300;2023-06-26T09:02:39;3.85;;;3.55;;
28245;SDS011;15510;52.512;13.300;2023-06-26T09:05:06;3.28;;;3.08;;
28245;SDS011;15510;52.512;13.300;2023-06-26T09:07:32;3.92;;;3.47;;
28245;SDS011;15510;52.512;13.300;2023-06-26T09:09:59;3.60;;;3.30;;
28245;SDS011;15510;52.512;13.300;2023-06-26T09:12:26;4.22;;;3.83;;
28245;SDS011;15510;52.512;13.300;2023-06-26T09:14:56;4.95;;;3.50;;
28245;SDS011;15510;52.512;13.300;2023-06-26T09:17:33;4.97;;;3.47;;
28245;SDS011;15510;52.512;13.300;2023-06-26T09:20:04;5.07;;;3.70;;
28245;SDS011;15510;52.512;13.300;2023-06-26T09:22:33;3.88;;;3.28;;
28245;SDS011;15510;52.512;13.300;2023-06-26T09:25:14;4.07;;;3.25;;
28245;SDS011;15510;52.512;13.300;2023-06-26T09:27:42;5.95;;;3.17;;
28245;SDS011;15510;52.512;13.300;2023-06-26T09:30:09;6.53;;;4.45;;
28245;SDS011;15510;52.512;13.300;2023-06-26T09:32:35;4.32;;;3.33;;
28245;SDS011;15510;52.512;13.300;2023-06-26T09:35:05;4.38;;;3.30;;
28245;SDS011;15510;52.512;13.300;2023-06-26T09:37:34;5.03;;;3.58;;
28245;SDS011;15510;52.512;13.300;2023-06-26T09:40:00;3.85;;;3.45;;
28245;SDS011;15510;52.512;13.300;2023-06-26T09:42:30;4.72;;;3.20;;
28245;SDS011;15510;52.512;13.300;2023-06-26T09:45:12;5.20;;;3.25;;
28245;SDS011;15510;52.512;13.300;2023-06-26T09:47:46;4.93;;;3.17;;
28245;SDS011;15510;52.512;13.300;2023-06-26T09:50:24;7.30;;;3.75;;
28245;SDS011;15510;52.512;13.300;2023-06-26T09:52:52;3.90;;;3.05;;
28245;SDS011;15510;52.512;13.300;2023-06-26T09:55:21;3.10;;;2.85;;
28245;SDS011;15510;52.512;13.300;2023-06-26T09:57:50;3.70;;;3.05;;
28245;SDS011;15510;52.512;13.300;2023-06-26T10:00:17;3.08;;;2.80;;
28245;SDS011;15510;52.512;13.300;2023-06-26T10:02:44;3.70;;;3.40;;
28245;SDS011;15510;52.512;13.300;2023-06-26T10:05:10;5.95;;;3.60;;
28245;SDS011;15510;52.512;13.300;2023-06-26T10:07:36;5.45;;;3.50;;
28245;SDS011;15510;52.512;13.300;2023-06-26T10:10:03;3.90;;;3.20;;
28245;SDS011;15510;52.512;13.300;2023-06-26T10:12:32;4.70;;;3.03;;
28245;SDS011;15510;52.512;13.300;2023-06-26T10:14:59;5.20;;;3.17;;
28245;SDS011;15510;52.512;13.300;2023-06-26T10:17:30;4.05;;;2.90;;
28245;SDS011;15510;52.512;13.300;2023-06-26T10:20:01;4.20;;;2.75;;
28245;SDS011;15510;52.512;13.300;2023-06-26T10:22:29;3.40;;;3.10;;
28245;SDS011;15510;52.512;13.300;2023-06-26T10:24:59;6.38;;;3.03;;
28245;SDS011;15510;52.512;13.300;2023-06-26T10:27:27;3.17;;;2.88;;
28245;SDS011;15510;52.512;13.300;2023-06-26T10:30:00;2.78;;;2.55;;
28245;SDS011;15510;52.512;13.300;2023-06-26T10:32:29;5.53;;;2.67;;
28245;SDS011;15510;52.512;13.300;2023-06-26T10:34:56;3.30;;;2.67;;
28245;SDS011;15510;52.512;13.300;2023-06-26T10:37:41;3.15;;;2.85;;
28245;SDS011;15510;52.512;13.300;2023-06-26T10:40:15;3.95;;;2.95;;
28245;SDS011;15510;52.512;13.300;2023-06-26T10:43:05;4.35;;;3.10;;
28245;SDS011;15510;52.512;13.300;2023-06-26T10:45:36;4.50;;;2.78;;
28245;SDS011;15510;52.512;13.300;2023-06-26T10:48:07;3.25;;;2.95;;
28245;SDS011;15510;52.512;13.300;2023-06-26T10:50:33;3.53;;;2.53;;
28245;SDS011;15510;52.512;13.300;2023-06-26T10:53:12;4.43;;;2.58;;
28245;SDS011;15510;52.512;13.300;2023-06-26T10:55:54;3.17;;;2.78;;
28245;SDS011;15510;52.512;13.300;2023-06-26T10:58:40;5.13;;;3.10;;
28245;SDS011;15510;52.512;13.300;2023-06-26T11:03:40;3.20;;;2.90;;
28245;SDS011;15510;52.512;13.300;2023-06-26T11:06:29;3.45;;;2.90;;
28245;SDS011;15510;52.512;13.300;2023-06-26T11:14:21;3.22;;;2.60;;
28245;SDS011;15510;52.512;13.300;2023-06-26T11:16:51;2.70;;;2.40;;
28245;SDS011;15510;52.512;13.300;2023-06-26T11:19:17;3.30;;;2.50;;
28245;SDS011;15510;52.512;13.300;2023-06-26T11:21:43;5.25;;;2.70;;
28245;SDS011;15510;52.512;13.300;2023-06-26T11:24:11;2.95;;;2.72;;
28245;SDS011;15510;52.512;13.300;2023-06-26T11:26:44;3.22;;;2.00;;
28245;SDS011;15510;52.512;13.300;2023-06-26T11:29:10;3.00;;;2.75;;
28245;SDS011;15510;52.512;13.300;2023-06-26T11:31:37;3.60;;;2.08;;
28245;SDS011;15510;52.512;13.300;2023-06-26T11:34:05;4.07;;;2.50;;
28245;SDS011;15510;52.512;13.300;2023-06-26T11:36:33;3.00;;;2.70;;
28245;SDS011;15510;52.512;13.300;2023-06-26T11:39:02;2.85;;;2.30;;
28245;SDS011;15510;52.512;13.300;2023-06-26T11:41:32;8.88;;;3.10;;
28245;SDS011;15510;52.512;13.300;2023-06-26T11:44:02;3.33;;;2.30;;
28245;SDS011;15510;52.512;13.300;2023-06-26T11:46:33;2.65;;;2.40;;
28245;SDS011;15510;52.512;13.300;2023-06-26T11:49:07;2.25;;;2.05;;
28245;SDS011;15510;52.512;13.300;2023-06-26T11:51:34;2.40;;;2.20;;
28245;SDS011;15510;52.512;13.300;2023-06-26T11:54:03;3.25;;;2.45;;
28245;SDS011;15510;52.512;13.300;2023-06-26T11:56:30;4.88;;;4.20;;
28245;SDS011;15510;52.512;13.300;2023-06-26T11:59:05;5.30;;;3.10;;
28245;SDS011;15510;52.512;13.300;2023-06-26T12:01:43;2.40;;;2.20;;
28245;SDS011;15510;52.512;13.300;2023-06-26T12:04:14;3.97;;;2.20;;
28245;SDS011;15510;52.512;13.300;2023-06-26T12:06:51;2.60;;;2.40;;
28245;SDS011;15510;52.512;13.300;2023-06-26T12:09:25;3.03;;;2.50;;
28245;SDS011;15510;52.512;13.300;2023-06-26T12:12:06;2.58;;;2.38;;
28245;SDS011;15510;52.512;13.300;2023-06-26T12:14:39;3.08;;;2.45;;
28245;SDS011;15510;52.512;13.300;2023-06-26T12:17:27;3.03;;;2.63;;
28245;SDS011;15510;52.512;13.300;2023-06-26T12:19:58;2.50;;;2.30;;
28245;SDS011;15510;52.512;13.300;2023-06-26T12:22:34;2.95;;;2.65;;
28245;SDS011;15510;52.512;13.300;2023-06-26T12:25:01;5.18;;;2.63;;
28245;SDS011;15510;52.512;13.300;2023-06-26T12:27:38;2.80;;;2.50;;
28245;SDS011;15510;52.512;13.300;2023-06-26T12:30:06;2.90;;;2.40;;
28245;SDS011;15510;52.512;13.300;2023-06-26T12:32:36;3.45;;;2.50;;
28245;SDS011;15510;52.512;13.300;2023-06-26T12:35:05;4.40;;;2.78;;
28245;SDS011;15510;52.512;13.300;2023-06-26T12:37:37;3.03;;;2.55;;
28245;SDS011;15510;52.512;13.300;2023-06-26T12:40:18;3.45;;;2.65;;
28245;SDS011;15510;52.512;13.300;2023-06-26T12:42:47;6.47;;;2.90;;
28245;SDS011;15510;52.512;13.300;2023-06-26T12:45:13;5.28;;;2.35;;
28245;SDS011;15510;52.512;13.300;2023-06-26T12:47:40;3.15;;;2.83;;
28245;SDS011;15510;52.512;13.300;2023-06-26T12:50:06;2.45;;;2.25;;
28245;SDS011;15510;52.512;13.300;2023-06-26T12:52:33;3.92;;;2.83;;
28245;SDS011;15510;52.512;13.300;2023-06-26T12:54:59;7.40;;;2.70;;
28245;SDS011;15510;52.512;13.300;2023-06-26T12:57:24;3.30;;;2.47;;
28245;SDS011;15510;52.512;13.300;2023-06-26T12:59:51;4.38;;;2.88;;
28245;SDS011;15510;52.512;13.300;2023-06-26T13:02:17;5.63;;;2.83;;
28245;SDS011;15510;52.512;13.300;2023-06-26T13:04:43;3.30;;;2.85;;
28245;SDS011;15510;52.512;13.300;2023-06-26T13:07:10;4.07;;;3.55;;
28245;SDS011;15510;52.512;13.300;2023-06-26T13:09:36;4.13;;;3.47;;
28245;SDS011;15510;52.512;13.300;2023-06-26T13:12:05;4.68;;;4.18;;
28245;SDS011;15510;52.512;13.300;2023-06-26T13:14:32;5.63;;;3.90;;
28245;SDS011;15510;52.512;13.300;2023-06-26T13:17:01;5.65;;;3.10;;
28245;SDS011;15510;52.512;13.300;2023-06-26T13:19:27;4.10;;;3.55;;
28245;SDS011;15510;52.512;13.300;2023-06-26T13:21:53;5.72;;;4.15;;
28245;SDS011;15510;52.512;13.300;2023-06-26T13:24:22;8.70;;;4.07;;
28245;SDS011;15510;52.512;13.300;2023-06-26T13:26:47;4.75;;;4.35;;
28245;SDS011;15510;52.512;13.300;2023-06-26T13:29:13;6.28;;;4.22;;
28245;SDS011;15510;52.512;13.300;2023-06-26T13:31:39;8.05;;;4.95;;
28245;SDS011;15510;52.512;13.300;2023-06-26T13:34:08;18.80;;;8.20;;
28245;SDS011;15510;52.512;13.300;2023-06-26T13:36:33;42.83;;;13.00;;
28245;SDS011;15510;52.512;13.300;2023-06-26T13:38:59;29.55;;;10.73;;
28245;SDS011;15510;52.512;13.300;2023-06-26T13:41:25;25.30;;;8.00;;
28245;SDS011;15510;52.512;13.300;2023-06-26T13:43:51;44.25;;;12.80;;
28245;SDS011;15510;52.512;13.300;2023-06-26T13:46:18;7.32;;;4.80;;
28245;SDS011;15510;52.512;13.300;2023-06-26T13:48:44;12.18;;;5.38;;
28245;SDS011;15510;52.512;13.300;2023-06-26T13:51:14;8.88;;;5.13;;
28245;SDS011;15510;52.512;13.300;2023-06-26T13:53:40;23.95;;;7.55;;
28245;SDS011;15510;52.512;13.300;2023-06-26T13:56:05;23.90;;;9.30;;
28245;SDS011;15510;52.512;13.300;2023-06-26T13:58:31;30.95;;;9.80;;
28245;SDS011;15510;52.512;13.300;2023-06-26T14:00:59;10.48;;;6.25;;
28245;SDS011;15510;52.512;13.300;2023-06-26T14:03:26;5.47;;;4.57;;
28245;SDS011;15510;52.512;13.300;2023-06-26T14:05:53;9.57;;;5.35;;
28245;SDS011;15510;52.512;13.300;2023-06-26T14:08:19;4.88;;;4.32;;
28245;SDS011;15510;52.512;13.300;2023-06-26T14:10:44;4.43;;;3.95;;
28245;SDS011;15510;52.512;13.300;2023-06-26T14:13:11;8.73;;;4.10;;
28245;SDS011;15510;52.512;13.300;2023-06-26T14:15:40;18.52;;;4.45;;
28245;SDS011;15510;52.512;13.300;2023-06-26T14:18:09;14.90;;;4.10;;
28245;SDS011;15510;52.512;13.300;2023-06-26T14:20:37;27.90;;;5.70;;
28245;SDS011;15510;52.512;13.300;2023-06-26T14:23:07;29.30;;;4.95;;
28245;SDS011;15510;52.512;13.300;2023-06-26T14:25:33;38.58;;;4.95;;
28245;SDS011;15510;52.512;13.300;2023-06-26T14:28:01;11.05;;;4.30;;
28245;SDS011;15510;52.512;13.300;2023-06-26T14:30:27;18.20;;;5.72;;
28245;SDS011;15510;52.512;13.300;2023-06-26T14:32:53;15.75;;;5.13;;
28245;SDS011;15510;52.512;13.300;2023-06-26T14:35:19;24.92;;;6.70;;
28245;SDS011;15510;52.512;13.300;2023-06-26T14:37:47;11.93;;;6.53;;
28245;SDS011;15510;52.512;13.300;2023-06-26T14:40:16;20.63;;;8.73;;
28245;SDS011;15510;52.512;13.300;2023-06-26T14:42:42;11.40;;;8.25;;
28245;SDS011;15510;52.512;13.300;2023-06-26T14:45:08;13.25;;;9.27;;
28245;SDS011;15510;52.512;13.300;2023-06-26T14:47:40;10.43;;;8.90;;
28245;SDS011;15510;52.512;13.300;2023-06-26T14:50:07;13.25;;;9.82;;
28245;SDS011;15510;52.512;13.300;2023-06-26T14:52:33;20.25;;;12.18;;
28245;SDS011;15510;52.512;13.300;2023-06-26T14:54:59;24.45;;;12.70;;